Time;durP1;ratioP1;P1;durP2;ratioP2;P2;SDS_P1;SDS_P2;PMS_P1;PMS_P2;Temp;Humidity;BMP_temperature;BMP_pressure;BME280_temperature;BME280_humidity;BME280_pressure;Samples;Min_cycle;Max_cycle;Signal;HPM_P1;HPM_P2
2021/09/10 00:01:19;;;;;;;17.90;16.27;;;20.30;99.90;;;;;;5041665;28;20471;-70
2021/09/10 00:03:46;;;;;;;18.30;17.20;;;20.20;99.90;;;;;;5040501;28;20982;-70
2021/09/10 00:06:14;;;;;;;22.87;17.43;;;20.10;99.90;;;;;;5051162;28;20576;-69
2021/09/10 00:08:42;;;;;;;19.37;17.63;;;20.10;99.90;;;;;;5056994;28;20465;-72
2021/09/10 00:11:09;;;;;;;18.10;16.60;;;20.00;99.90;;;;;;5048740;28;20463;-70
2021/09/10 00:13:36;;;;;;;17.80;16.70;;;20.00;99.90;;;;;;5037908;28;20466;-70
2021/09/10 00:16:04;;;;;;;17.30;16.10;;;19.90;99.90;;;;;;5039253;28;20613;-69
2021/09/10 00:18:32;;;;;;;17.53;16.10;;;19.80;99.90;;;;;;5042096;28;20502;-70
2021/09/10 00:20:59;;;;;;;18.73;17.43;;;19.80;99.90;;;;;;5038432;28;20465;-70
2021/09/10 00:23:31;;;;;;;17.97;16.70;;;19.70;99.90;;;;;;5039798;28;20460;-70
2021/09/10 00:25:58;;;;;;;18.60;17.50;;;19.70;99.90;;;;;;5047422;28;20458;-72
2021/09/10 00:28:25;;;;;;;17.77;16.67;;;19.70;99.90;;;;;;5039227;28;20819;-70
2021/09/10 00:30:52;;;;;;;17.60;16.50;;;19.60;99.90;;;;;;5046723;28;20463;-72
2021/09/10 00:33:20;;;;;;;19.03;17.63;;;19.60;99.90;;;;;;5046643;28;20464;-70
2021/09/10 00:35:47;;;;;;;19.33;17.43;;;19.60;99.90;;;;;;5050730;28;20874;-70
2021/09/10 00:38:14;;;;;;;18.67;17.10;;;19.60;99.90;;;;;;5047383;28;20826;-70
2021/09/10 00:40:43;;;;;;;19.97;18.57;;;19.60;99.90;;;;;;5042492;28;20472;-71
2021/09/10 00:43:11;;;;;;;18.73;17.13;;;19.60;99.90;;;;;;5048347;28;20456;-72
2021/09/10 00:45:42;;;;;;;20.37;18.67;;;19.60;99.90;;;;;;5045657;28;20460;-70
2021/09/10 00:48:11;;;;;;;20.83;18.80;;;19.60;99.90;;;;;;5046972;28;20487;-70
2021/09/10 00:50:39;;;;;;;20.83;19.10;;;19.60;99.90;;;;;;5054905;28;20467;-72
2021/09/10 00:53:06;;;;;;;20.40;18.97;;;19.60;99.90;;;;;;5049505;28;20460;-70
2021/09/10 00:55:33;;;;;;;20.60;18.90;;;19.60;99.90;;;;;;5052258;28;20446;-71
2021/09/10 00:58:03;;;;;;;20.80;18.90;;;19.60;99.90;;;;;;5040511;28;20464;-71
2021/09/10 01:00:31;;;;;;;19.17;17.47;;;19.60;99.90;;;;;;5044873;28;20462;-70
2021/09/10 01:02:58;;;;;;;19.80;18.00;;;19.60;99.90;;;;;;5042983;28;20447;-70
2021/09/10 01:05:26;;;;;;;18.53;17.17;;;19.60;99.90;;;;;;5050430;28;21014;-71
2021/09/10 01:07:57;;;;;;;19.07;17.60;;;19.60;99.90;;;;;;5048725;28;20488;-71
2021/09/10 01:10:25;;;;;;;18.97;17.57;;;19.60;99.90;;;;;;5040297;28;20478;-71
2021/09/10 01:12:54;;;;;;;19.03;17.63;;;19.60;99.90;;;;;;5044179;28;20574;-70
2021/09/10 01:15:24;;;;;;;18.20;16.60;;;19.60;99.90;;;;;;5038385;28;20490;-72
2021/09/10 01:17:51;;;;;;;18.53;17.00;;;19.60;99.90;;;;;;5038057;28;20483;-70
2021/09/10 01:20:18;;;;;;;19.27;17.67;;;19.60;99.90;;;;;;5054868;28;20455;-69
2021/09/10 01:22:46;;;;;;;17.73;16.33;;;19.60;99.90;;;;;;5041823;28;20563;-70
2021/09/10 01:25:15;;;;;;;18.13;16.73;;;19.60;99.90;;;;;;5047263;28;20452;-71
2021/09/10 01:27:46;;;;;;;20.93;18.80;;;19.60;99.90;;;;;;5052416;28;20491;-69
2021/09/10 01:30:15;;;;;;;19.13;17.23;;;19.60;99.90;;;;;;5050254;28;20464;-69
2021/09/10 01:32:42;;;;;;;19.70;18.00;;;19.60;99.90;;;;;;5044976;28;20522;-69
2021/09/10 01:35:10;;;;;;;20.00;18.47;;;19.50;99.90;;;;;;5039520;28;20483;-71
2021/09/10 01:37:37;;;;;;;20.47;18.40;;;19.50;99.90;;;;;;5050906;28;20459;-71
2021/09/10 01:40:06;;;;;;;19.27;17.60;;;19.50;99.90;;;;;;5048752;28;20464;-72
2021/09/10 01:42:36;;;;;;;20.53;18.93;;;19.40;99.90;;;;;;5047518;28;20463;-70
2021/09/10 01:45:04;;;;;;;21.97;17.60;;;19.40;99.90;;;;;;5042855;28;20460;-71
2021/09/10 01:47:34;;;;;;;19.20;17.77;;;19.40;99.90;;;;;;5039145;28;20485;-69
2021/09/10 01:50:01;;;;;;;19.63;18.30;;;19.40;99.90;;;;;;5052331;28;20471;-69
2021/09/10 01:52:29;;;;;;;20.03;18.50;;;19.40;99.90;;;;;;5055689;28;20458;-72
2021/09/10 01:54:56;;;;;;;19.17;17.67;;;19.50;99.90;;;;;;5054814;28;20546;-69
2021/09/10 01:57:23;;;;;;;18.73;17.33;;;19.60;99.90;;;;;;5052618;28;20465;-71
2021/09/10 01:59:53;;;;;;;18.67;17.33;;;19.80;99.90;;;;;;5053792;28;20486;-69
2021/09/10 02:02:20;;;;;;;18.53;17.17;;;19.80;99.90;;;;;;5046005;28;20465;-70
2021/09/10 02:04:47;;;;;;;17.90;16.63;;;19.90;99.90;;;;;;5037264;28;20448;-71
2021/09/10 02:07:14;;;;;;;18.87;17.47;;;19.90;99.90;;;;;;5050595;28;21019;-70
2021/09/10 02:09:41;;;;;;;17.63;16.53;;;19.90;99.90;;;;;;5055173;28;20483;-70
2021/09/10 02:12:09;;;;;;;19.57;17.80;;;19.90;99.90;;;;;;5051022;28;20458;-71
2021/09/10 02:14:37;;;;;;;20.20;18.33;;;19.80;99.90;;;;;;5043968;28;20510;-72
2021/09/10 02:17:05;;;;;;;18.00;16.90;;;19.70;99.90;;;;;;5042434;28;20476;-70
2021/09/10 02:19:34;;;;;;;18.63;17.43;;;19.70;99.90;;;;;;5042912;28;20456;-69
2021/09/10 02:22:02;;;;;;;19.90;18.33;;;19.60;99.90;;;;;;5046095;28;20862;-70
2021/09/10 02:24:29;;;;;;;20.73;18.90;;;19.50;99.90;;;;;;5040963;28;20463;-71
2021/09/10 02:26:57;;;;;;;19.70;18.07;;;19.40;99.90;;;;;;5043997;28;20994;-70
2021/09/10 02:29:24;;;;;;;19.67;18.37;;;19.40;99.90;;;;;;5051570;28;20551;-71
2021/09/10 02:31:51;;;;;;;20.87;19.47;;;19.30;99.90;;;;;;5036124;28;20465;-71
2021/09/10 02:34:20;;;;;;;21.37;19.87;;;19.30;99.90;;;;;;5056286;28;20479;-70
2021/09/10 02:36:48;;;;;;;21.83;20.17;;;19.20;99.90;;;;;;5039165;28;20460;-71
2021/09/10 02:39:15;;;;;;;21.33;19.73;;;19.10;99.90;;;;;;5041868;28;20459;-72
2021/09/10 02:41:44;;;;;;;20.17;18.77;;;19.10;99.90;;;;;;5043854;28;20468;-70
2021/09/10 02:44:11;;;;;;;20.63;19.13;;;19.00;99.90;;;;;;5042176;28;20456;-70
2021/09/10 02:46:38;;;;;;;21.67;19.97;;;18.90;99.90;;;;;;5051271;28;20468;-70
2021/09/10 02:49:06;;;;;;;21.17;19.67;;;18.90;99.90;;;;;;5041734;28;20840;-69
2021/09/10 02:51:36;;;;;;;21.80;20.30;;;18.80;99.90;;;;;;5045539;28;20451;-69
2021/09/10 02:54:04;;;;;;;21.53;19.83;;;18.80;99.90;;;;;;5044897;28;20465;-71
2021/09/10 02:56:31;;;;;;;22.17;20.57;;;18.70;99.90;;;;;;5049933;28;20463;-70
2021/09/10 02:58:58;;;;;;;20.63;18.93;;;18.70;99.90;;;;;;5053255;28;20490;-71
2021/09/10 03:01:24;;;;;;;20.10;18.80;;;18.70;99.90;;;;;;5042339;28;20464;-70
2021/09/10 03:03:52;;;;;;;21.27;19.83;;;18.70;99.90;;;;;;5042364;28;20456;-70
2021/09/10 03:06:20;;;;;;;20.83;19.23;;;18.70;99.90;;;;;;5045322;28;20511;-70
2021/09/10 03:08:50;;;;;;;20.90;19.50;;;18.90;99.90;;;;;;5036631;28;20622;-70
2021/09/10 03:11:17;;;;;;;19.83;18.50;;;18.90;99.90;;;;;;5046458;28;20468;-69
2021/09/10 03:13:44;;;;;;;20.03;18.63;;;19.00;99.90;;;;;;5049608;28;20944;-70
2021/09/10 03:16:11;;;;;;;18.93;17.73;;;19.10;99.90;;;;;;5046157;28;20459;-70
2021/09/10 03:18:39;;;;;;;20.80;19.30;;;19.10;99.90;;;;;;5049923;28;20470;-71
2021/09/10 03:21:06;;;;;;;19.73;18.00;;;19.20;99.90;;;;;;5047926;28;20456;-70
2021/09/10 03:23:33;;;;;;;20.07;18.47;;;19.20;99.90;;;;;;5037803;28;20461;-70
2021/09/10 03:26:01;;;;;;;20.07;18.40;;;19.20;99.90;;;;;;5038491;28;20553;-72
2021/09/10 03:28:28;;;;;;;19.37;17.70;;;19.20;99.90;;;;;;5051655;28;20503;-69
2021/09/10 03:30:56;;;;;;;20.17;18.67;;;19.20;99.90;;;;;;5042249;28;20941;-70
2021/09/10 03:33:25;;;;;;;18.67;17.30;;;19.20;99.90;;;;;;5044664;28;20460;-69
2021/09/10 03:35:52;;;;;;;19.57;18.30;;;19.20;99.90;;;;;;5048785;28;20455;-71
2021/09/10 03:38:21;;;;;;;20.33;18.70;;;19.20;99.90;;;;;;5048789;28;20460;-70
2021/09/10 03:40:49;;;;;;;20.77;19.30;;;19.20;99.90;;;;;;5045070;28;20511;-70
2021/09/10 03:43:19;;;;;;;20.83;19.30;;;19.10;99.90;;;;;;5049683;28;20456;-69
2021/09/10 03:45:46;;;;;;;22.77;21.13;;;19.10;99.90;;;;;;5046850;28;20483;-70
2021/09/10 03:48:13;;;;;;;22.43;20.50;;;19.10;99.90;;;;;;5043552;28;20490;-70
2021/09/10 03:50:39;;;;;;;21.50;20.00;;;19.10;99.90;;;;;;5043663;28;20452;-71
2021/09/10 03:53:06;;;;;;;22.07;20.00;;;19.00;99.90;;;;;;5035203;28;21084;-71
2021/09/10 03:55:35;;;;;;;20.10;18.90;;;19.00;99.90;;;;;;5044952;28;20460;-71
2021/09/10 03:58:03;;;;;;;20.67;19.17;;;19.10;99.90;;;;;;5046883;28;20547;-70
2021/09/10 04:00:32;;;;;;;20.90;19.60;;;19.10;99.90;;;;;;5048068;28;20513;-70
2021/09/10 04:03:03;;;;;;;20.67;19.17;;;19.10;99.90;;;;;;5041128;28;20525;-70
2021/09/10 04:05:32;;;;;;;20.93;19.43;;;19.20;99.90;;;;;;5037874;28;20502;-70
2021/09/10 04:07:59;;;;;;;21.10;19.50;;;19.10;99.90;;;;;;5038604;28;20491;-71
2021/09/10 04:10:26;;;;;;;20.90;19.40;;;19.10;99.90;;;;;;5043140;28;20452;-71
2021/09/10 04:12:53;;;;;;;23.00;20.83;;;19.00;99.90;;;;;;5038923;28;20471;-70
2021/09/10 04:15:22;;;;;;;20.80;19.40;;;18.90;99.90;;;;;;5047188;28;20490;-70
2021/09/10 04:17:51;;;;;;;22.27;20.40;;;18.80;99.90;;;;;;5043281;28;20475;-70
2021/09/10 04:20:18;;;;;;;20.27;18.90;;;18.70;99.90;;;;;;5038448;28;20882;-70
2021/09/10 04:22:45;;;;;;;21.40;19.90;;;18.70;99.90;;;;;;5037536;28;20477;-70
2021/09/10 04:25:14;;;;;;;21.97;20.30;;;18.50;99.90;;;;;;5053100;28;20504;-71
2021/09/10 04:27:41;;;;;;;21.93;20.30;;;18.40;99.90;;;;;;5042187;28;20591;-71
2021/09/10 04:30:10;;;;;;;21.50;20.10;;;18.40;99.90;;;;;;5042159;28;20451;-70
2021/09/10 04:32:36;;;;;;;22.73;21.00;;;18.30;99.90;;;;;;5036554;28;21005;-71
2021/09/10 04:35:07;;;;;;;21.87;20.20;;;18.30;99.90;;;;;;5042199;28;20483;-71
2021/09/10 04:37:34;;;;;;;22.23;20.73;;;18.30;99.90;;;;;;5042864;28;20455;-70
2021/09/10 04:40:02;;;;;;;22.30;20.40;;;18.30;99.90;;;;;;5044747;28;20459;-72
2021/09/10 04:42:30;;;;;;;23.00;21.20;;;18.30;99.90;;;;;;5043278;28;20452;-70
2021/09/10 04:44:57;;;;;;;23.60;21.77;;;18.20;99.90;;;;;;5047880;28;20522;-71
2021/09/10 04:47:26;;;;;;;23.30;21.60;;;18.20;99.90;;;;;;5036724;28;20453;-71
2021/09/10 04:49:54;;;;;;;22.07;20.37;;;18.20;99.90;;;;;;5044181;28;20451;-71
2021/09/10 04:52:24;;;;;;;22.03;20.53;;;18.20;99.90;;;;;;5041475;28;20467;-71
2021/09/10 04:54:53;;;;;;;21.40;19.90;;;18.20;99.90;;;;;;5043687;28;20657;-72
2021/09/10 04:57:21;;;;;;;22.97;20.67;;;18.20;99.90;;;;;;5038528;28;20871;-72
2021/09/10 04:59:48;;;;;;;23.53;20.43;;;18.20;99.90;;;;;;5038604;28;20466;-70
2021/09/10 05:02:15;;;;;;;22.53;20.30;;;18.30;99.90;;;;;;5040770;28;20546;-70
2021/09/10 05:04:42;;;;;;;23.30;21.20;;;18.20;99.90;;;;;;5038995;28;20473;-72
2021/09/10 05:07:09;;;;;;;22.30;20.40;;;18.30;99.90;;;;;;5036156;28;20449;-70
2021/09/10 05:09:38;;;;;;;23.77;22.00;;;18.30;99.90;;;;;;5041649;28;21734;-70
2021/09/10 05:12:06;;;;;;;23.47;21.77;;;18.30;99.90;;;;;;5040254;28;20458;-70
2021/09/10 05:14:33;;;;;;;22.27;20.13;;;18.40;99.90;;;;;;5045033;28;20464;-70
2021/09/10 05:16:59;;;;;;;22.87;20.40;;;18.40;99.90;;;;;;5043893;28;20902;-71
2021/09/10 05:19:27;;;;;;;22.33;20.03;;;18.50;99.90;;;;;;5037866;28;20464;-70
2021/09/10 05:21:54;;;;;;;27.83;20.60;;;18.50;99.90;;;;;;5039233;28;20518;-72
2021/09/10 05:24:21;;;;;;;27.67;21.00;;;18.50;99.90;;;;;;5045375;28;20472;-72
2021/09/10 05:26:49;;;;;;;22.70;20.40;;;18.60;99.90;;;;;;5057398;28;20461;-70
2021/09/10 05:29:17;;;;;;;23.83;18.97;;;18.70;99.90;;;;;;5053001;28;20498;-71
2021/09/10 05:31:45;;;;;;;35.70;19.27;;;18.80;99.90;;;;;;5047633;28;20460;-70
2021/09/10 05:34:13;;;;;;;20.70;18.70;;;18.90;99.90;;;;;;5042999;28;20494;-71
2021/09/10 05:36:40;;;;;;;20.93;18.77;;;19.00;99.90;;;;;;5046206;28;20460;-71
2021/09/10 05:39:07;;;;;;;20.27;18.30;;;19.00;99.90;;;;;;5050240;28;20460;-70
2021/09/10 05:41:34;;;;;;;22.53;18.87;;;19.10;99.90;;;;;;5052318;28;20850;-70
2021/09/10 05:44:04;;;;;;;19.53;17.80;;;19.20;99.90;;;;;;5044750;28;20451;-71
2021/09/10 05:46:31;;;;;;;18.07;16.57;;;19.40;99.90;;;;;;5041990;28;20459;-70
2021/09/10 05:48:57;;;;;;;19.07;16.97;;;19.50;99.90;;;;;;5048567;28;20479;-71
2021/09/10 05:51:24;;;;;;;19.13;17.33;;;19.70;99.90;;;;;;5040676;28;20460;-70
2021/09/10 05:53:53;;;;;;;17.73;16.03;;;20.00;99.90;;;;;;5046126;28;20460;-71
2021/09/10 05:56:20;;;;;;;17.97;16.43;;;20.20;99.90;;;;;;5041742;28;20583;-71
2021/09/10 05:58:46;;;;;;;18.43;16.67;;;20.30;99.90;;;;;;5045533;28;20890;-72
2021/09/10 06:01:14;;;;;;;17.17;15.97;;;20.50;99.90;;;;;;5039962;28;20456;-71
2021/09/10 06:03:42;;;;;;;17.30;16.13;;;20.60;99.90;;;;;;5036691;28;20452;-70
2021/09/10 06:06:10;;;;;;;18.03;16.73;;;20.80;99.90;;;;;;5044440;28;20978;-70
2021/09/10 06:08:37;;;;;;;16.97;15.97;;;21.00;99.90;;;;;;5054728;28;20498;-72
2021/09/10 06:11:06;;;;;;;16.43;15.53;;;21.30;99.90;;;;;;5051350;28;20443;-70
2021/09/10 06:13:34;;;;;;;17.50;16.13;;;21.40;99.90;;;;;;5044704;28;20812;-70
2021/09/10 06:16:01;;;;;;;17.23;15.87;;;21.50;99.90;;;;;;5042297;28;20463;-70
2021/09/10 06:18:31;;;;;;;16.30;15.30;;;21.70;99.90;;;;;;5044280;28;20456;-70
2021/09/10 06:21:01;;;;;;;15.37;14.23;;;21.90;99.90;;;;;;5043598;28;20942;-69
2021/09/10 06:23:28;;;;;;;17.80;16.20;;;21.90;99.90;;;;;;5027589;28;20540;-72
2021/09/10 06:25:55;;;;;;;16.40;15.30;;;22.00;99.90;;;;;;5036275;28;20456;-71
2021/09/10 06:28:23;;;;;;;15.97;15.00;;;22.10;99.90;;;;;;5036677;28;20475;-70
2021/09/10 06:30:49;;;;;;;16.87;15.33;;;22.20;99.90;;;;;;5036237;28;20475;-72
2021/09/10 06:33:16;;;;;;;16.40;15.40;;;22.30;99.90;;;;;;5033969;28;20738;-70
2021/09/10 06:35:45;;;;;;;16.40;15.43;;;22.40;99.90;;;;;;5040237;28;20476;-72
2021/09/10 06:38:13;;;;;;;16.37;15.27;;;22.40;99.90;;;;;;5042008;28;20456;-72
2021/09/10 06:40:40;;;;;;;16.27;15.37;;;22.30;99.90;;;;;;5039050;28;20452;-71
2021/09/10 06:43:07;;;;;;;15.50;14.60;;;22.30;99.90;;;;;;5036113;28;20468;-71
2021/09/10 06:45:34;;;;;;;16.60;15.20;;;22.30;99.90;;;;;;5043126;28;21359;-70
2021/09/10 06:48:01;;;;;;;16.97;15.70;;;22.20;99.90;;;;;;5041260;28;20802;-71
2021/09/10 06:50:29;;;;;;;16.00;15.10;;;22.20;99.90;;;;;;5041177;28;20935;-71
2021/09/10 06:52:58;;;;;;;17.73;15.77;;;22.20;99.90;;;;;;5034800;28;20495;-71
2021/09/10 06:55:25;;;;;;;15.10;14.20;;;22.30;99.90;;;;;;5040687;28;20464;-69
2021/09/10 06:57:52;;;;;;;15.90;14.90;;;22.30;99.90;;;;;;5038970;28;20618;-70
2021/09/10 07:00:19;;;;;;;16.10;14.80;;;22.30;99.90;;;;;;5038284;28;20461;-70
2021/09/10 07:02:45;;;;;;;16.03;14.67;;;22.30;99.90;;;;;;5037159;28;20480;-71
2021/09/10 07:05:13;;;;;;;15.27;14.17;;;22.30;99.90;;;;;;5042493;28;20483;-71
2021/09/10 07:07:39;;;;;;;16.00;14.90;;;22.30;99.90;;;;;;5038831;28;20467;-72
2021/09/10 07:10:09;;;;;;;16.20;15.30;;;22.30;99.90;;;;;;5034846;28;21382;-71
2021/09/10 07:12:36;;;;;;;15.73;14.83;;;22.30;99.90;;;;;;5034788;28;20460;-70
2021/09/10 07:15:03;;;;;;;16.40;15.40;;;22.30;99.90;;;;;;5032401;28;20467;-70
2021/09/10 07:17:32;;;;;;;16.07;15.27;;;22.40;99.90;;;;;;5039028;28;20475;-71
2021/09/10 07:19:59;;;;;;;16.17;15.10;;;22.30;99.90;;;;;;5042909;28;21321;-71
2021/09/10 07:22:27;;;;;;;15.60;14.60;;;22.30;99.90;;;;;;5033586;28;20461;-73
2021/09/10 07:24:54;;;;;;;15.37;14.57;;;22.40;99.90;;;;;;5036758;28;20471;-73
2021/09/10 07:27:23;;;;;;;15.87;14.97;;;22.30;99.90;;;;;;5037818;28;20575;-71
2021/09/10 07:29:50;;;;;;;15.90;14.90;;;22.30;99.90;;;;;;5040532;28;20494;-72
2021/09/10 07:32:17;;;;;;;15.80;15.00;;;22.40;99.90;;;;;;5042324;28;20876;-70
2021/09/10 07:34:43;;;;;;;16.30;15.37;;;22.40;99.90;;;;;;5038138;28;20490;-70
2021/09/10 07:37:10;;;;;;;16.47;15.17;;;22.50;99.90;;;;;;5040266;28;20464;-71
2021/09/10 07:39:38;;;;;;;16.23;15.20;;;22.70;99.90;;;;;;5043633;28;20505;-71
2021/09/10 07:42:05;;;;;;;16.70;15.70;;;22.80;99.90;;;;;;5048082;28;20463;-71
2021/09/10 07:44:34;;;;;;;15.47;14.57;;;23.10;99.90;;;;;;5047502;28;20463;-73
2021/09/10 07:47:01;;;;;;;16.23;15.13;;;23.50;99.90;;;;;;5033097;28;20490;-71
2021/09/10 07:49:27;;;;;;;16.80;15.70;;;23.70;99.90;;;;;;5034219;28;20488;-71
2021/09/10 07:51:54;;;;;;;15.67;14.80;;;23.70;99.90;;;;;;5035454;28;20955;-71
2021/09/10 07:54:21;;;;;;;16.07;15.03;;;23.90;99.90;;;;;;5039413;28;20461;-70
2021/09/10 07:56:48;;;;;;;15.23;14.00;;;24.30;99.90;;;;;;5037119;28;20464;-71
2021/09/10 07:59:14;;;;;;;16.40;15.30;;;24.40;99.90;;;;;;5040073;28;20456;-71
2021/09/10 08:01:43;;;;;;;16.17;15.17;;;24.60;99.90;;;;;;5034048;28;20514;-73
2021/09/10 08:04:10;;;;;;;16.87;15.47;;;24.60;99.90;;;;;;5033205;28;20463;-70
2021/09/10 08:06:37;;;;;;;16.27;15.37;;;24.60;99.90;;;;;;5031458;28;20600;-70
2021/09/10 08:09:04;;;;;;;16.23;15.10;;;24.70;99.90;;;;;;5034164;28;20492;-71
2021/09/10 08:11:33;;;;;;;16.10;15.10;;;25.00;99.90;;;;;;5036733;28;20464;-72
2021/09/10 08:14:00;;;;;;;15.40;14.50;;;25.10;99.90;;;;;;5036604;28;21206;-71
2021/09/10 08:16:27;;;;;;;16.17;15.10;;;25.20;99.90;;;;;;5035077;28;20467;-69
2021/09/10 08:18:56;;;;;;;16.03;15.00;;;25.30;99.90;;;;;;5039294;28;20467;-72
2021/09/10 08:21:23;;;;;;;15.67;14.60;;;25.40;99.90;;;;;;5037519;28;20473;-70
2021/09/10 08:23:50;;;;;;;16.30;14.67;;;25.60;99.90;;;;;;5036836;28;20542;-72
2021/09/10 08:26:17;;;;;;;16.00;14.50;;;25.60;99.90;;;;;;5035891;28;20940;-71
2021/09/10 08:28:44;;;;;;;15.73;14.70;;;25.60;99.90;;;;;;5039463;28;20553;-71
2021/09/10 08:31:11;;;;;;;15.93;14.63;;;25.80;99.90;;;;;;5033449;28;20451;-72
2021/09/10 08:33:38;;;;;;;15.80;14.70;;;25.70;99.90;;;;;;5028592;28;20475;-72
2021/09/10 08:36:06;;;;;;;15.47;14.37;;;25.80;99.90;;;;;;5036509;28;20467;-73
2021/09/10 08:38:33;;;;;;;15.63;14.63;;;25.90;99.90;;;;;;5030680;28;20471;-71
2021/09/10 08:41:05;;;;;;;15.03;13.97;;;25.90;99.90;;;;;;5035945;28;21029;-71
2021/09/10 08:43:32;;;;;;;16.10;15.10;;;26.00;99.90;;;;;;5036557;28;21173;-70
2021/09/10 08:46:01;;;;;;;15.60;14.63;;;25.90;99.90;;;;;;5032506;28;20457;-71
2021/09/10 08:48:28;;;;;;;15.03;14.23;;;25.90;99.90;;;;;;5030537;28;20478;-71
2021/09/10 08:50:56;;;;;;;15.90;14.90;;;25.80;99.90;;;;;;5036043;28;20574;-73
2021/09/10 08:53:25;;;;;;;16.57;15.33;;;25.80;99.90;;;;;;5033903;28;20460;-70
2021/09/10 08:55:52;;;;;;;15.40;14.60;;;25.50;99.90;;;;;;5039992;28;20821;-74
2021/09/10 08:58:19;;;;;;;16.70;14.83;;;25.30;99.90;;;;;;5042997;28;20487;-70
2021/09/10 09:00:47;;;;;;;15.20;14.40;;;25.30;99.90;;;;;;5038613;28;20473;-69
2021/09/10 09:03:14;;;;;;;15.23;14.23;;;25.10;99.90;;;;;;5042072;28;20483;-70
2021/09/10 09:05:41;;;;;;;14.83;14.00;;;25.20;99.90;;;;;;5041590;28;20475;-70
2021/09/10 09:08:11;;;;;;;15.67;14.77;;;25.00;99.90;;;;;;5042969;28;20468;-71
2021/09/10 09:10:54;;;;;;;15.90;15.00;;;24.80;99.90;;;;;;5049337;28;20839;-71
2021/09/10 09:13:22;;;;;;;14.80;13.90;;;24.70;99.90;;;;;;5041843;28;20470;-73
2021/09/10 09:15:49;;;;;;;15.47;14.57;;;24.50;99.90;;;;;;5041226;28;20459;-73
2021/09/10 09:18:16;;;;;;;15.30;14.40;;;24.50;99.90;;;;;;5036583;28;20460;-70
2021/09/10 09:20:48;;;;;;;15.43;14.53;;;24.40;99.90;;;;;;5036081;28;20882;-72
2021/09/10 09:23:17;;;;;;;15.60;14.80;;;24.30;99.90;;;;;;5039100;28;20459;-70
2021/09/10 09:25:45;;;;;;;15.90;14.90;;;24.00;99.90;;;;;;5039744;28;20478;-71
2021/09/10 09:28:22;;;;;;;18.03;16.40;;;23.70;99.90;;;;;;5042701;28;20463;-70
2021/09/10 09:30:51;;;;;;;17.93;16.20;;;23.60;99.90;;;;;;5041926;28;20849;-71
2021/09/10 09:33:18;;;;;;;18.03;15.90;;;23.30;99.90;;;;;;5034802;28;20464;-70
2021/09/10 09:35:47;;;;;;;17.30;16.20;;;23.20;99.90;;;;;;5045013;28;20825;-73
2021/09/10 09:38:17;;;;;;;16.50;15.40;;;23.50;99.90;;;;;;5039357;28;20476;-72
2021/09/10 09:40:45;;;;;;;15.87;15.00;;;23.70;99.90;;;;;;5049955;28;20462;-71
2021/09/10 09:43:14;;;;;;;17.10;15.70;;;24.10;99.90;;;;;;5035905;28;20465;-71
2021/09/10 09:45:42;;;;;;;17.00;16.00;;;24.30;99.90;;;;;;5036739;28;20465;-72
2021/09/10 09:48:10;;;;;;;17.73;16.50;;;24.30;99.90;;;;;;5036772;28;20456;-73
2021/09/10 09:50:38;;;;;;;16.67;15.57;;;24.40;99.90;;;;;;5040837;28;20488;-71
2021/09/10 09:53:05;;;;;;;16.80;15.80;;;24.70;99.90;;;;;;5043851;28;21140;-71
2021/09/10 09:55:33;;;;;;;16.20;15.20;;;25.00;99.90;;;;;;5043962;28;20543;-71
2021/09/10 09:58:03;;;;;;;16.73;15.37;;;25.00;99.90;;;;;;5039561;28;20490;-70
2021/09/10 10:00:30;;;;;;;15.90;14.80;;;25.00;99.90;;;;;;5036131;28;20456;-71
2021/09/10 10:03:00;;;;;;;15.60;14.20;;;25.00;99.90;;;;;;5046662;28;20464;-71
2021/09/10 10:05:28;;;;;;;15.47;14.40;;;24.80;99.90;;;;;;5041039;28;21025;-71
2021/09/10 10:07:59;;;;;;;18.07;15.90;;;25.00;99.90;;;;;;5043249;28;20521;-71
2021/09/10 10:10:30;;;;;;;16.27;15.13;;;25.00;99.90;;;;;;5039315;28;21056;-69
2021/09/10 10:12:59;;;;;;;16.63;15.07;;;25.20;99.90;;;;;;5041917;28;21076;-69
2021/09/10 10:15:27;;;;;;;16.70;15.60;;;25.30;99.90;;;;;;5038789;28;21287;-70
2021/09/10 10:17:56;;;;;;;17.07;15.53;;;25.40;99.90;;;;;;5034806;28;20456;-72
2021/09/10 10:20:50;;;;;;;17.10;15.70;;;25.10;99.90;;;;;;5031518;28;20469;-71
2021/09/10 10:23:56;;;;;;;17.30;15.83;;;25.20;99.90;;;;;;5042680;28;21435;-70
2021/09/10 10:26:38;;;;;;;18.00;16.73;;;25.30;99.90;;;;;;5040648;28;20451;-70
2021/09/10 10:29:11;;;;;;;18.40;17.20;;;25.40;99.90;;;;;;5029880;28;20506;-71
2021/09/10 10:32:05;;;;;;;17.87;16.73;;;25.60;99.90;;;;;;5039315;28;20464;-70
2021/09/10 10:34:32;;;;;;;17.23;16.17;;;25.20;99.90;;;;;;5037884;28;21014;-70
2021/09/10 10:37:02;;;;;;;18.27;17.10;;;25.30;99.90;;;;;;5036798;28;20460;-69
2021/09/10 10:39:30;;;;;;;16.13;15.33;;;25.40;99.90;;;;;;5038009;28;21252;-71
2021/09/10 10:42:03;;;;;;;16.87;15.97;;;25.60;99.90;;;;;;5051556;28;20451;-70
2021/09/10 10:44:47;;;;;;;17.20;16.20;;;25.80;99.90;;;;;;5043183;28;20470;-71
2021/09/10 10:47:15;;;;;;;17.30;16.40;;;26.00;99.90;;;;;;5046373;28;21298;-72
2021/09/10 10:49:44;;;;;;;16.80;15.50;;;26.10;99.90;;;;;;5040568;28;20478;-70
2021/09/10 10:52:36;;;;;;;17.53;16.30;;;26.20;99.90;;;;;;5034280;28;20823;-70
2021/09/10 10:55:21;;;;;;;16.80;15.40;;;26.30;99.90;;;;;;5039749;28;20969;-73
2021/09/10 10:57:49;;;;;;;16.60;15.60;;;26.20;99.90;;;;;;5031978;28;20461;-70
2021/09/10 11:00:48;;;;;;;17.57;16.57;;;26.30;99.90;;;;;;5035011;28;20471;-71
2021/09/10 11:03:49;;;;;;;16.57;15.47;;;26.50;99.90;;;;;;4999453;28;20456;-70
2021/09/10 11:06:28;;;;;;;16.10;15.20;;;27.30;99.90;;;;;;5038921;28;20530;-70
2021/09/10 11:08:57;;;;;;;16.40;15.50;;;27.50;99.90;;;;;;5045718;28;20470;-70
2021/09/10 11:11:30;;;;;;;16.43;15.27;;;27.50;99.90;;;;;;5032024;28;20523;-72
2021/09/10 11:13:57;;;;;;;17.07;16.07;;;27.90;99.90;;;;;;5046200;28;20461;-71
2021/09/10 11:16:28;;;;;;;17.93;16.83;;;28.20;99.90;;;;;;5040762;28;20466;-72
2021/09/10 11:18:55;;;;;;;16.20;15.10;;;28.60;99.90;;;;;;5038996;28;20499;-70
2021/09/10 11:21:29;;;;;;;15.73;14.83;;;29.30;99.90;;;;;;5037969;28;20972;-70
2021/09/10 11:24:07;;;;;;;15.43;14.63;;;30.00;99.90;;;;;;5042728;28;20556;-70
2021/09/10 11:26:35;;;;;;;17.27;16.37;;;30.00;99.90;;;;;;5044223;28;20533;-70
2021/09/10 11:29:13;;;;;;;16.80;15.83;;;29.10;99.90;;;;;;5048132;28;20460;-70
2021/09/10 11:31:43;;;;;;;16.60;15.60;;;29.10;99.90;;;;;;5039967;28;20519;-72
2021/09/10 11:34:11;;;;;;;16.60;15.60;;;28.70;99.90;;;;;;5039473;28;20498;-70
2021/09/10 11:36:38;;;;;;;15.60;14.77;;;28.20;99.90;;;;;;5047149;28;21394;-71
2021/09/10 11:39:09;;;;;;;15.53;14.43;;;28.00;99.90;;;;;;5037597;28;20495;-70
2021/09/10 11:41:37;;;;;;;16.00;15.00;;;27.20;99.90;;;;;;5039752;28;20558;-71
2021/09/10 11:44:10;;;;;;;16.00;15.10;;;27.00;99.90;;;;;;5041707;28;20464;-70
2021/09/10 11:46:37;;;;;;;15.97;15.07;;;26.50;99.90;;;;;;5038496;28;20481;-70
2021/09/10 11:49:05;;;;;;;18.50;17.50;;;26.40;99.90;;;;;;5048923;28;20829;-70
2021/09/10 11:51:38;;;;;;;24.77;23.07;;;26.10;99.90;;;;;;5043526;28;20495;-68
2021/09/10 11:54:12;;;;;;;33.60;30.80;;;25.40;99.90;;;;;;5038398;28;20466;-67
2021/09/10 11:56:39;;;;;;;36.27;32.63;;;24.70;99.90;;;;;;5045177;28;20456;-67
2021/09/10 11:59:21;;;;;;;32.83;29.93;;;24.20;99.90;;;;;;5038866;28;20531;-68
2021/09/10 12:01:49;;;;;;;31.50;28.57;;;24.20;99.90;;;;;;5036813;28;20855;-68
2021/09/10 12:04:27;;;;;;;29.57;26.70;;;24.30;99.90;;;;;;5036457;28;20539;-67
2021/09/10 12:06:57;;;;;;;29.63;26.13;;;24.20;99.90;;;;;;5039720;28;20566;-68
2021/09/10 12:09:27;;;;;;;25.77;23.77;;;23.80;99.90;;;;;;5032507;28;20466;-69
2021/09/10 12:12:16;;;;;;;23.53;21.10;;;23.50;99.90;;;;;;5036489;28;20538;-68
2021/09/10 12:14:46;;;;;;;21.67;19.97;;;23.40;99.90;;;;;;5028451;28;20475;-68
2021/09/10 12:17:26;;;;;;;25.40;22.37;;;23.70;99.90;;;;;;5036278;28;20468;-68
2021/09/10 12:19:57;;;;;;;19.73;18.37;;;23.90;99.90;;;;;;5032348;28;20464;-68
2021/09/10 12:22:56;;;;;;;19.30;17.37;;;24.30;99.90;;;;;;5032547;28;20481;-71
2021/09/10 12:25:44;;;;;;;17.30;16.00;;;24.90;99.90;;;;;;5019341;28;20465;-68
2021/09/10 12:28:30;;;;;;;16.17;15.37;;;25.40;99.90;;;;;;5032532;28;20461;-67
2021/09/10 12:31:05;;;;;;;16.83;15.63;;;26.00;99.90;;;;;;5042941;28;20491;-68
2021/09/10 12:33:33;;;;;;;16.63;15.40;;;26.50;99.90;;;;;;5039478;28;20533;-69
2021/09/10 12:36:03;;;;;;;16.60;15.60;;;27.20;99.90;;;;;;5045577;28;20462;-68
2021/09/10 12:38:33;;;;;;;16.43;15.33;;;27.70;99.90;;;;;;5041237;28;21018;-68